sensor_id;sensor_type;location;lat;lon;timestamp;pressure;altitude;pressure_sealevel;temperature;humidity
68230;BME280;55048;52.220;5.160;2023-01-25T00:02:05;103641.50;;;2.59;76.96
68230;BME280;55048;52.220;5.160;2023-01-25T00:04:31;103511.53;;;1.83;76.78
68230;BME280;55048;52.220;5.160;2023-01-25T00:06:57;103734.03;;;3.21;76.92
68230;BME280;55048;52.220;5.160;2023-01-25T00:09:23;103711.78;;;3.14;76.66
68230;BME280;55048;52.220;5.160;2023-01-25T00:11:49;103488.25;;;1.78;76.46
68230;BME280;55048;52.220;5.160;2023-01-25T00:14:15;103603.50;;;2.51;76.46
68230;BME280;55048;52.220;5.160;2023-01-25T00:16:41;103726.13;;;3.21;76.72
68230;BME280;55048;52.220;5.160;2023-01-25T00:19:07;103680.94;;;2.94;76.55
68230;BME280;55048;52.220;5.160;2023-01-25T00:21:34;103701.00;;;3.06;76.47
68230;BME280;55048;52.220;5.160;2023-01-25T00:24:00;103576.09;;;2.20;76.55
68230;BME280;55048;52.220;5.160;2023-01-25T00:26:25;103638.28;;;2.55;77.00
68230;BME280;55048;52.220;5.160;2023-01-25T00:28:52;103713.78;;;2.99;77.01
68230;BME280;55048;52.220;5.160;2023-01-25T00:36:39;103709.09;;;2.92;77.00
68230;BME280;55048;52.220;5.160;2023-01-25T00:39:06;103707.66;;;2.88;76.77
68230;BME280;55048;52.220;5.160;2023-01-25T00:41:35;103612.00;;;2.20;77.15
68230;BME280;55048;52.220;5.160;2023-01-25T00:44:00;103698.41;;;2.71;77.15
68230;BME280;55048;52.220;5.160;2023-01-25T00:46:26;103697.47;;;2.83;76.87
68230;BME280;55048;52.220;5.160;2023-01-25T00:48:52;103700.59;;;2.88;76.98
68230;BME280;55048;52.220;5.160;2023-01-25T00:51:19;103567.22;;;2.10;76.65
68230;BME280;55048;52.220;5.160;2023-01-25T00:53:44;103690.22;;;2.98;76.40
68230;BME280;55048;52.220;5.160;2023-01-25T00:56:10;103658.88;;;2.72;76.24
68230;BME280;55048;52.220;5.160;2023-01-25T00:58:36;103465.84;;;1.61;76.40
68230;BME280;55048;52.220;5.160;2023-01-25T01:01:04;103609.34;;;2.44;76.20
68230;BME280;55048;52.220;5.160;2023-01-25T01:03:29;103608.06;;;2.49;76.34
68230;BME280;55048;52.220;5.160;2023-01-25T01:06:00;103487.84;;;1.71;76.18
68230;BME280;55048;52.220;5.160;2023-01-25T01:08:26;103648.22;;;2.63;76.11
68230;BME280;55048;52.220;5.160;2023-01-25T01:10:57;103640.59;;;2.71;76.34
68230;BME280;55048;52.220;5.160;2023-01-25T01:13:22;103644.28;;;2.68;76.48
68230;BME280;55048;52.220;5.160;2023-01-25T01:15:48;103599.56;;;2.46;76.24
68230;BME280;55048;52.220;5.160;2023-01-25T01:18:13;103428.28;;;1.49;76.20
68230;BME280;55048;52.220;5.160;2023-01-25T01:20:39;103627.56;;;2.69;76.46
68230;BME280;55048;52.220;5.160;2023-01-25T01:23:04;103598.59;;;2.47;76.60
68230;BME280;55048;52.220;5.160;2023-01-25T01:25:29;103681.50;;;2.97;76.55
68230;BME280;55048;52.220;5.160;2023-01-25T01:27:55;103661.16;;;2.88;76.46
68230;BME280;55048;52.220;5.160;2023-01-25T01:30:20;103671.00;;;2.97;76.46
68230;BME280;55048;52.220;5.160;2023-01-25T01:32:45;103648.03;;;2.77;76.05
68230;BME280;55048;52.220;5.160;2023-01-25T01:35:11;103588.53;;;2.29;76.82
68230;BME280;55048;52.220;5.160;2023-01-25T01:37:40;103604.59;;;2.49;76.50
68230;BME280;55048;52.220;5.160;2023-01-25T01:40:07;103686.41;;;2.91;76.36
68230;BME280;55048;52.220;5.160;2023-01-25T01:42:32;103695.34;;;2.88;76.50
68230;BME280;55048;52.220;5.160;2023-01-25T01:44:58;103599.53;;;2.35;76.55
68230;BME280;55048;52.220;5.160;2023-01-25T01:47:27;103617.84;;;2.47;76.46
68230;BME280;55048;52.220;5.160;2023-01-25T01:50:02;103571.78;;;2.19;76.46
68230;BME280;55048;52.220;5.160;2023-01-25T01:52:34;103484.50;;;1.45;76.18
68230;BME280;55048;52.220;5.160;2023-01-25T01:55:06;103676.84;;;2.90;76.38
68230;BME280;55048;52.220;5.160;2023-01-25T01:57:45;103676.94;;;2.77;76.52
68230;BME280;55048;52.220;5.160;2023-01-25T02:00:26;103675.13;;;2.77;76.47
68230;BME280;55048;52.220;5.160;2023-01-25T02:02:53;103622.09;;;2.37;76.69
68230;BME280;55048;52.220;5.160;2023-01-25T02:07:51;103593.38;;;2.23;77.13
68230;BME280;55048;52.220;5.160;2023-01-25T02:10:20;103624.50;;;2.40;76.63
68230;BME280;55048;52.220;5.160;2023-01-25T02:12:47;103649.53;;;2.57;76.59
68230;BME280;55048;52.220;5.160;2023-01-25T02:15:13;103660.53;;;2.62;76.63
68230;BME280;55048;52.220;5.160;2023-01-25T02:17:39;103495.72;;;1.47;76.60
68230;BME280;55048;52.220;5.160;2023-01-25T02:25:36;103540.38;;;1.83;76.54
68230;BME280;55048;52.220;5.160;2023-01-25T02:28:09;103567.84;;;1.90;76.75
68230;BME280;55048;52.220;5.160;2023-01-25T02:30:37;103662.94;;;2.41;77.26
68230;BME280;55048;52.220;5.160;2023-01-25T02:33:02;103507.81;;;1.61;76.63
68230;BME280;55048;52.220;5.160;2023-01-25T02:35:47;103516.31;;;1.65;76.74
68230;BME280;55048;52.220;5.160;2023-01-25T02:38:17;103648.91;;;2.53;76.59
68230;BME280;55048;52.220;5.160;2023-01-25T02:40:51;103604.22;;;2.18;76.53
68230;BME280;55048;52.220;5.160;2023-01-25T02:43:17;103659.94;;;2.35;76.90
68230;BME280;55048;52.220;5.160;2023-01-25T02:45:50;103577.25;;;2.16;76.69
68230;BME280;55048;52.220;5.160;2023-01-25T02:48:17;103587.78;;;2.27;76.54
68230;BME280;55048;52.220;5.160;2023-01-25T02:50:43;103518.03;;;1.77;76.74
68230;BME280;55048;52.220;5.160;2023-01-25T02:53:10;103649.53;;;2.57;76.91
68230;BME280;55048;52.220;5.160;2023-01-25T02:55:36;103456.84;;;1.41;77.17
68230;BME280;55048;52.220;5.160;2023-01-25T02:58:01;103341.13;;;0.74;76.63
68230;BME280;55048;52.220;5.160;2023-01-25T03:00:27;103595.78;;;2.26;76.60
68230;BME280;55048;52.220;5.160;2023-01-25T03:02:53;103480.44;;;1.41;76.80
68230;BME280;55048;52.220;5.160;2023-01-25T03:05:19;103634.50;;;2.35;76.98
68230;BME280;55048;52.220;5.160;2023-01-25T03:07:44;103371.81;;;0.85;76.84
68230;BME280;55048;52.220;5.160;2023-01-25T03:10:10;103619.16;;;2.53;76.86
68230;BME280;55048;52.220;5.160;2023-01-25T03:12:35;103460.91;;;1.45;76.50
68230;BME280;55048;52.220;5.160;2023-01-25T03:15:01;103609.84;;;2.49;76.67
68230;BME280;55048;52.220;5.160;2023-01-25T03:17:26;103535.81;;;2.09;76.71
68230;BME280;55048;52.220;5.160;2023-01-25T03:19:52;103320.09;;;0.75;76.62
68230;BME280;55048;52.220;5.160;2023-01-25T03:22:18;103556.88;;;2.20;76.43
68230;BME280;55048;52.220;5.160;2023-01-25T03:24:43;103511.44;;;1.95;76.97
68230;BME280;55048;52.220;5.160;2023-01-25T03:27:09;103581.97;;;2.24;77.22
68230;BME280;55048;52.220;5.160;2023-01-25T03:29:44;103609.50;;;2.53;77.53
68230;BME280;55048;52.220;5.160;2023-01-25T03:32:15;103553.03;;;2.13;77.43
68230;BME280;55048;52.220;5.160;2023-01-25T03:34:40;103560.94;;;2.24;77.16
68230;BME280;55048;52.220;5.160;2023-01-25T03:37:06;103472.03;;;1.84;77.10
68230;BME280;55048;52.220;5.160;2023-01-25T03:39:33;103599.25;;;2.62;77.19
68230;BME280;55048;52.220;5.160;2023-01-25T03:41:58;103504.63;;;1.93;77.18
68230;BME280;55048;52.220;5.160;2023-01-25T03:44:24;103529.03;;;2.17;77.09
68230;BME280;55048;52.220;5.160;2023-01-25T03:46:49;103516.88;;;2.16;77.03
68230;BME280;55048;52.220;5.160;2023-01-25T03:49:15;103265.25;;;0.61;76.87
68230;BME280;55048;52.220;5.160;2023-01-25T03:51:40;103512.66;;;2.02;76.90
68230;BME280;55048;52.220;5.160;2023-01-25T03:54:06;103365.09;;;1.17;77.10
68230;BME280;55048;52.220;5.160;2023-01-25T03:56:34;103565.38;;;2.35;77.34
68230;BME280;55048;52.220;5.160;2023-01-25T03:59:06;103548.91;;;2.33;77.14
68230;BME280;55048;52.220;5.160;2023-01-25T04:01:32;103513.50;;;2.03;76.86
68230;BME280;55048;52.220;5.160;2023-01-25T04:03:58;103578.09;;;2.17;77.02
68230;BME280;55048;52.220;5.160;2023-01-25T04:06:23;103564.06;;;2.29;77.07
68230;BME280;55048;52.220;5.160;2023-01-25T04:08:49;103555.19;;;2.19;77.16
68230;BME280;55048;52.220;5.160;2023-01-25T04:11:16;103560.47;;;2.30;77.12
68230;BME280;55048;52.220;5.160;2023-01-25T04:13:44;103590.50;;;2.50;76.94
68230;BME280;55048;52.220;5.160;2023-01-25T04:16:12;103519.22;;;2.08;76.97
68230;BME280;55048;52.220;5.160;2023-01-25T04:19:10;103527.06;;;1.97;76.88
68230;BME280;55048;52.220;5.160;2023-01-25T04:21:37;103382.03;;;1.24;76.94
68230;BME280;55048;52.220;5.160;2023-01-25T04:24:02;103497.38;;;1.96;77.16
68230;BME280;55048;52.220;5.160;2023-01-25T04:26:29;103379.53;;;1.23;77.51
68230;BME280;55048;52.220;5.160;2023-01-25T04:28:58;103420.84;;;1.43;77.46
68230;BME280;55048;52.220;5.160;2023-01-25T04:31:23;103533.09;;;2.10;77.60
68230;BME280;55048;52.220;5.160;2023-01-25T04:33:49;103523.16;;;2.02;77.82
68230;BME280;55048;52.220;5.160;2023-01-25T04:36:16;103334.34;;;0.71;78.01
68230;BME280;55048;52.220;5.160;2023-01-25T04:38:41;103564.63;;;2.21;78.20
68230;BME280;55048;52.220;5.160;2023-01-25T04:41:08;103470.00;;;1.52;78.02
68230;BME280;55048;52.220;5.160;2023-01-25T04:43:34;103291.53;;;0.60;77.78
68230;BME280;55048;52.220;5.160;2023-01-25T04:46:04;103509.47;;;1.86;77.49
68230;BME280;55048;52.220;5.160;2023-01-25T04:48:31;103529.09;;;1.93;78.19
68230;BME280;55048;52.220;5.160;2023-01-25T04:51:00;103479.72;;;1.63;78.32
68230;BME280;55048;52.220;5.160;2023-01-25T04:53:25;103450.69;;;1.53;78.08
68230;BME280;55048;52.220;5.160;2023-01-25T04:55:52;103544.66;;;2.08;78.10
68230;BME280;55048;52.220;5.160;2023-01-25T04:58:19;103547.34;;;1.95;78.19
68230;BME280;55048;52.220;5.160;2023-01-25T05:00:44;103478.44;;;1.69;77.95
68230;BME280;55048;52.220;5.160;2023-01-25T05:03:10;103386.75;;;1.19;77.90
68230;BME280;55048;52.220;5.160;2023-01-25T05:05:36;103388.69;;;1.17;77.57
68230;BME280;55048;52.220;5.160;2023-01-25T05:08:06;103537.88;;;2.16;77.56
68230;BME280;55048;52.220;5.160;2023-01-25T05:10:32;103304.88;;;0.57;77.07
68230;BME280;55048;52.220;5.160;2023-01-25T05:13:23;103522.25;;;2.15;77.00
68230;BME280;55048;52.220;5.160;2023-01-25T05:15:55;103536.34;;;2.25;77.14
68230;BME280;55048;52.220;5.160;2023-01-25T05:18:22;103531.44;;;2.20;76.87
68230;BME280;55048;52.220;5.160;2023-01-25T05:20:53;103456.13;;;1.74;77.10
68230;BME280;55048;52.220;5.160;2023-01-25T05:23:21;103534.78;;;2.22;77.27
68230;BME280;55048;52.220;5.160;2023-01-25T05:25:47;103499.16;;;1.96;77.50
68230;BME280;55048;52.220;5.160;2023-01-25T05:28:31;103492.22;;;1.95;77.25
68230;BME280;55048;52.220;5.160;2023-01-25T05:31:14;103448.94;;;1.65;78.17
68230;BME280;55048;52.220;5.160;2023-01-25T05:33:40;103488.81;;;1.82;77.83
68230;BME280;55048;52.220;5.160;2023-01-25T05:36:06;103472.84;;;1.73;77.39
68230;BME280;55048;52.220;5.160;2023-01-25T05:38:34;103485.88;;;1.86;77.39
68230;BME280;55048;52.220;5.160;2023-01-25T05:40:59;103485.28;;;1.83;77.33
68230;BME280;55048;52.220;5.160;2023-01-25T05:43:26;103512.63;;;1.91;77.54
68230;BME280;55048;52.220;5.160;2023-01-25T05:45:52;103480.47;;;1.76;77.37
68230;BME280;55048;52.220;5.160;2023-01-25T05:48:18;103481.13;;;1.91;77.24
68230;BME280;55048;52.220;5.160;2023-01-25T05:50:43;103530.50;;;2.21;77.35
68230;BME280;55048;52.220;5.160;2023-01-25T05:53:13;103524.75;;;2.16;78.16
68230;BME280;55048;52.220;5.160;2023-01-25T05:55:38;103502.28;;;2.01;77.62
68230;BME280;55048;52.220;5.160;2023-01-25T05:58:08;103518.06;;;2.12;77.75
68230;BME280;55048;52.220;5.160;2023-01-25T06:00:33;103496.06;;;2.02;77.70
68230;BME280;55048;52.220;5.160;2023-01-25T06:03:01;103511.63;;;2.16;77.59
68230;BME280;55048;52.220;5.160;2023-01-25T06:05:28;103530.28;;;2.24;77.72
68230;BME280;55048;52.220;5.160;2023-01-25T06:07:53;103508.25;;;2.14;77.55
68230;BME280;55048;52.220;5.160;2023-01-25T06:10:21;103527.88;;;2.33;77.56
68230;BME280;55048;52.220;5.160;2023-01-25T06:12:48;103529.34;;;2.37;77.40
68230;BME280;55048;52.220;5.160;2023-01-25T06:15:14;103512.13;;;2.21;77.34
68230;BME280;55048;52.220;5.160;2023-01-25T06:17:39;103534.94;;;2.32;77.35
68230;BME280;55048;52.220;5.160;2023-01-25T06:20:27;103526.47;;;2.28;77.22
68230;BME280;55048;52.220;5.160;2023-01-25T06:23:05;103515.31;;;2.14;77.38
68230;BME280;55048;52.220;5.160;2023-01-25T06:25:30;103543.16;;;2.27;78.00
68230;BME280;55048;52.220;5.160;2023-01-25T06:27:56;103538.16;;;2.24;78.09
68230;BME280;55048;52.220;5.160;2023-01-25T06:33:49;103535.53;;;2.24;77.78
68230;BME280;55048;52.220;5.160;2023-01-25T06:36:23;103529.09;;;2.28;77.62
68230;BME280;55048;52.220;5.160;2023-01-25T06:39:12;103364.06;;;1.07;77.55
68230;BME280;55048;52.220;5.160;2023-01-25T06:48:42;103343.25;;;0.93;78.45
68230;BME280;55048;52.220;5.160;2023-01-25T06:51:12;103530.47;;;2.10;78.01
68230;BME280;55048;52.220;5.160;2023-01-25T06:53:48;103349.03;;;0.98;78.12
68230;BME280;55048;52.220;5.160;2023-01-25T06:56:19;103468.34;;;1.63;78.16
68230;BME280;55048;52.220;5.160;2023-01-25T06:58:56;103458.81;;;1.62;78.13
68230;BME280;55048;52.220;5.160;2023-01-25T07:01:23;103528.69;;;2.11;78.29
68230;BME280;55048;52.220;5.160;2023-01-25T07:03:56;103441.78;;;1.67;77.96
68230;BME280;55048;52.220;5.160;2023-01-25T07:06:22;103439.41;;;1.64;77.66
68230;BME280;55048;52.220;5.160;2023-01-25T07:08:49;103434.59;;;1.58;77.76
68230;BME280;55048;52.220;5.160;2023-01-25T07:11:24;103405.09;;;1.43;77.92
68230;BME280;55048;52.220;5.160;2023-01-25T07:13:49;103371.78;;;1.21;78.06
68230;BME280;55048;52.220;5.160;2023-01-25T07:16:17;103453.03;;;1.69;77.98
68230;BME280;55048;52.220;5.160;2023-01-25T07:18:43;103437.06;;;1.48;78.19
68230;BME280;55048;52.220;5.160;2023-01-25T07:21:17;103519.00;;;2.11;78.03
68230;BME280;55048;52.220;5.160;2023-01-25T07:23:50;103446.19;;;1.67;77.86
68230;BME280;55048;52.220;5.160;2023-01-25T07:26:24;103468.75;;;1.69;77.53
68230;BME280;55048;52.220;5.160;2023-01-25T07:28:55;103457.63;;;1.55;78.13
68230;BME280;55048;52.220;5.160;2023-01-25T07:31:21;103457.38;;;1.58;78.29
68230;BME280;55048;52.220;5.160;2023-01-25T07:33:48;103505.00;;;1.99;78.04
68230;BME280;55048;52.220;5.160;2023-01-25T07:36:13;103436.28;;;1.59;78.23
68230;BME280;55048;52.220;5.160;2023-01-25T07:38:39;103504.78;;;2.02;77.79
68230;BME280;55048;52.220;5.160;2023-01-25T07:41:05;103488.75;;;1.83;77.75
68230;BME280;55048;52.220;5.160;2023-01-25T07:43:30;103507.63;;;1.99;77.91
68230;BME280;55048;52.220;5.160;2023-01-25T07:46:07;103493.31;;;1.92;77.85
68230;BME280;55048;52.220;5.160;2023-01-25T07:48:36;103489.50;;;1.96;77.63
68230;BME280;55048;52.220;5.160;2023-01-25T07:51:03;103496.91;;;2.02;77.89
68230;BME280;55048;52.220;5.160;2023-01-25T07:53:50;103490.22;;;1.98;77.91
68230;BME280;55048;52.220;5.160;2023-01-25T07:56:16;103491.28;;;1.96;77.90
68230;BME280;55048;52.220;5.160;2023-01-25T07:58:43;103480.88;;;1.94;78.10
68230;BME280;55048;52.220;5.160;2023-01-25T08:01:11;103432.03;;;1.69;78.00
68230;BME280;55048;52.220;5.160;2023-01-25T08:03:37;103485.19;;;1.95;77.99
68230;BME280;55048;52.220;5.160;2023-01-25T08:06:03;103474.81;;;1.94;77.98
68230;BME280;55048;52.220;5.160;2023-01-25T08:08:33;103482.06;;;1.90;78.02
68230;BME280;55048;52.220;5.160;2023-01-25T08:11:27;103481.81;;;1.82;77.97
68230;BME280;55048;52.220;5.160;2023-01-25T08:13:53;103465.41;;;1.67;78.78
68230;BME280;55048;52.220;5.160;2023-01-25T08:16:20;103423.69;;;1.40;78.67
68230;BME280;55048;52.220;5.160;2023-01-25T08:18:47;103482.16;;;1.77;78.34
68230;BME280;55048;52.220;5.160;2023-01-25T08:21:13;103480.38;;;1.78;78.33
68230;BME280;55048;52.220;5.160;2023-01-25T08:23:38;103468.50;;;1.72;78.46
68230;BME280;55048;52.220;5.160;2023-01-25T08:26:05;103492.38;;;1.69;79.17
68230;BME280;55048;52.220;5.160;2023-01-25T08:28:31;103463.06;;;1.51;78.75
68230;BME280;55048;52.220;5.160;2023-01-25T08:31:07;103498.50;;;1.81;78.87
68230;BME280;55048;52.220;5.160;2023-01-25T08:33:33;103485.63;;;1.78;78.33
68230;BME280;55048;52.220;5.160;2023-01-25T08:35:59;103492.06;;;1.85;78.26
68230;BME280;55048;52.220;5.160;2023-01-25T08:38:24;103463.72;;;1.66;78.16
68230;BME280;55048;52.220;5.160;2023-01-25T08:40:49;103464.97;;;1.73;78.34
68230;BME280;55048;52.220;5.160;2023-01-25T08:43:15;103465.06;;;1.72;78.47
68230;BME280;55048;52.220;5.160;2023-01-25T08:45:40;103450.94;;;1.62;78.65
68230;BME280;55048;52.220;5.160;2023-01-25T08:48:06;103439.34;;;1.53;78.41
68230;BME280;55048;52.220;5.160;2023-01-25T08:50:31;103399.69;;;1.34;78.32
68230;BME280;55048;52.220;5.160;2023-01-25T08:52:56;103406.28;;;1.39;78.52
68230;BME280;55048;52.220;5.160;2023-01-25T08:55:22;103433.41;;;1.51;78.93
68230;BME280;55048;52.220;5.160;2023-01-25T08:57:47;103410.59;;;1.40;78.96
68230;BME280;55048;52.220;5.160;2023-01-25T09:00:14;103438.09;;;1.59;78.75
68230;BME280;55048;52.220;5.160;2023-01-25T09:02:40;103438.31;;;1.56;78.92
68230;BME280;55048;52.220;5.160;2023-01-25T09:05:06;103454.06;;;1.67;78.80
68230;BME280;55048;52.220;5.160;2023-01-25T09:07:31;103433.75;;;1.58;78.69
68230;BME280;55048;52.220;5.160;2023-01-25T09:10:02;103432.94;;;1.57;78.22
68230;BME280;55048;52.220;5.160;2023-01-25T09:12:28;103435.56;;;1.57;78.28
68230;BME280;55048;52.220;5.160;2023-01-25T09:14:53;103456.84;;;1.76;78.52
68230;BME280;55048;52.220;5.160;2023-01-25T09:17:19;103449.09;;;1.75;78.51
68230;BME280;55048;52.220;5.160;2023-01-25T09:19:46;103417.09;;;1.59;78.20
68230;BME280;55048;52.220;5.160;2023-01-25T09:22:11;103449.59;;;1.80;78.35
68230;BME280;55048;52.220;5.160;2023-01-25T09:24:37;103439.31;;;1.77;78.40
68230;BME280;55048;52.220;5.160;2023-01-25T09:27:02;103427.84;;;1.67;78.79
68230;BME280;55048;52.220;5.160;2023-01-25T09:29:27;103448.97;;;1.76;79.15
68230;BME280;55048;52.220;5.160;2023-01-25T09:31:53;103414.81;;;1.54;79.07
68230;BME280;55048;52.220;5.160;2023-01-25T09:34:29;103435.03;;;1.76;79.06
68230;BME280;55048;52.220;5.160;2023-01-25T09:36:54;103383.44;;;1.52;78.53
68230;BME280;55048;52.220;5.160;2023-01-25T09:39:20;103401.38;;;1.70;78.56
68230;BME280;55048;52.220;5.160;2023-01-25T09:47:53;103429.81;;;1.87;78.44
68230;BME280;55048;52.220;5.160;2023-01-25T09:50:29;103433.72;;;1.82;78.54
68230;BME280;55048;52.220;5.160;2023-01-25T09:55:34;103410.56;;;1.75;78.71
68230;BME280;55048;52.220;5.160;2023-01-25T09:58:01;103415.13;;;1.85;78.58
68230;BME280;55048;52.220;5.160;2023-01-25T10:00:43;103426.38;;;1.87;78.85
68230;BME280;55048;52.220;5.160;2023-01-25T10:03:19;103374.88;;;1.62;78.59
68230;BME280;55048;52.220;5.160;2023-01-25T10:05:47;103406.09;;;1.89;78.75
68230;BME280;55048;52.220;5.160;2023-01-25T10:08:35;103401.88;;;1.86;78.64
68230;BME280;55048;52.220;5.160;2023-01-25T10:11:13;103382.34;;;1.79;78.67
68230;BME280;55048;52.220;5.160;2023-01-25T10:13:41;103352.09;;;1.62;78.57
68230;BME280;55048;52.220;5.160;2023-01-25T10:16:20;103387.94;;;1.86;79.05
68230;BME280;55048;52.220;5.160;2023-01-25T10:19:07;103350.72;;;1.69;78.87
68230;BME280;55048;52.220;5.160;2023-01-25T10:21:40;103383.69;;;1.96;78.54
68230;BME280;55048;52.220;5.160;2023-01-25T10:27:17;103365.75;;;1.78;78.42
68230;BME280;55048;52.220;5.160;2023-01-25T10:29:45;103366.47;;;1.81;78.59
68230;BME280;55048;52.220;5.160;2023-01-25T10:32:18;103380.91;;;1.86;78.50
68230;BME280;55048;52.220;5.160;2023-01-25T10:34:49;103354.50;;;1.65;78.96
68230;BME280;55048;52.220;5.160;2023-01-25T10:37:26;103369.09;;;1.81;79.02
68230;BME280;55048;52.220;5.160;2023-01-25T10:39:57;103355.88;;;1.82;78.60
68230;BME280;55048;52.220;5.160;2023-01-25T10:42:26;103370.53;;;1.85;78.92
68230;BME280;55048;52.220;5.160;2023-01-25T10:44:53;103355.81;;;1.60;79.70
68230;BME280;55048;52.220;5.160;2023-01-25T10:47:25;103365.38;;;1.72;79.65
68230;BME280;55048;52.220;5.160;2023-01-25T10:49:56;103315.25;;;1.52;79.70
68230;BME280;55048;52.220;5.160;2023-01-25T10:55:19;103339.63;;;1.77;79.74
68230;BME280;55048;52.220;5.160;2023-01-25T10:57:52;103323.28;;;1.73;79.21
68230;BME280;55048;52.220;5.160;2023-01-25T11:00:30;103326.84;;;1.72;79.40
68230;BME280;55048;52.220;5.160;2023-01-25T11:02:58;103312.69;;;1.75;79.47
68230;BME280;55048;52.220;5.160;2023-01-25T11:05:34;103291.44;;;1.67;79.30
68230;BME280;55048;52.220;5.160;2023-01-25T11:08:25;103313.88;;;1.93;79.18
68230;BME280;55048;52.220;5.160;2023-01-25T11:10:57;103304.94;;;1.85;79.30
68230;BME280;55048;52.220;5.160;2023-01-25T11:13:31;103311.50;;;1.79;79.36
68230;BME280;55048;52.220;5.160;2023-01-25T11:18:31;103296.72;;;1.78;79.32
68230;BME280;55048;52.220;5.160;2023-01-25T11:21:11;103300.63;;;1.72;79.48
68230;BME280;55048;52.220;5.160;2023-01-25T11:23:39;103287.03;;;1.67;79.38
68230;BME280;55048;52.220;5.160;2023-01-25T11:26:18;103235.50;;;1.44;78.91
68230;BME280;55048;52.220;5.160;2023-01-25T11:28:45;103264.97;;;1.59;78.84
68230;BME280;55048;52.220;5.160;2023-01-25T11:31:19;103282.38;;;1.71;78.38
68230;BME280;55048;52.220;5.160;2023-01-25T11:33:45;103266.47;;;1.39;78.22
68230;BME280;55048;52.220;5.160;2023-01-25T11:38:49;103252.91;;;1.56;79.02
68230;BME280;55048;52.220;5.160;2023-01-25T11:44:28;103225.84;;;1.44;79.47
68230;BME280;55048;52.220;5.160;2023-01-25T11:49:43;103188.41;;;1.31;79.71
68230;BME280;55048;52.220;5.160;2023-01-25T11:54:58;103154.00;;;1.36;78.72
68230;BME280;55048;52.220;5.160;2023-01-25T12:00:39;103181.75;;;1.61;78.81
68230;BME280;55048;52.220;5.160;2023-01-25T12:05:58;103161.47;;;1.51;78.85
68230;BME280;55048;52.220;5.160;2023-01-25T12:14:24;103135.38;;;1.50;78.78
68230;BME280;55048;52.220;5.160;2023-01-25T12:19:38;103076.28;;;1.23;79.09
68230;BME280;55048;52.220;5.160;2023-01-25T12:30:17;103072.81;;;1.34;79.41
68230;BME280;55048;52.220;5.160;2023-01-25T12:32:53;103081.75;;;1.43;79.87
68230;BME280;55048;52.220;5.160;2023-01-25T12:37:51;103107.47;;;1.60;79.83
68230;BME280;55048;52.220;5.160;2023-01-25T12:40:41;103092.25;;;1.54;79.83
68230;BME280;55048;52.220;5.160;2023-01-25T12:43:15;103099.94;;;1.67;80.06
68230;BME280;55048;52.220;5.160;2023-01-25T12:45:44;103091.97;;;1.68;79.31
68230;BME280;55048;52.220;5.160;2023-01-25T12:48:24;103084.34;;;1.65;79.37
68230;BME280;55048;52.220;5.160;2023-01-25T12:50:57;103032.53;;;1.35;79.40
68230;BME280;55048;52.220;5.160;2023-01-25T12:53:30;103059.97;;;1.31;79.39
68230;BME280;55048;52.220;5.160;2023-01-25T12:55:58;103051.25;;;1.42;79.38
68230;BME280;55048;52.220;5.160;2023-01-25T12:58:48;103073.72;;;1.67;79.46
68230;BME280;55048;52.220;5.160;2023-01-25T13:01:45;103027.88;;;1.39;79.62
68230;BME280;55048;52.220;5.160;2023-01-25T13:06:58;102930.03;;;0.84;79.44
68230;BME280;55048;52.220;5.160;2023-01-25T13:09:37;103064.16;;;1.77;79.39
68230;BME280;55048;52.220;5.160;2023-01-25T13:12:04;103063.00;;;1.70;80.20
68230;BME280;55048;52.220;5.160;2023-01-25T13:14:35;102947.41;;;0.96;79.48
68230;BME280;55048;52.220;5.160;2023-01-25T13:17:17;103062.25;;;1.79;79.52
68230;BME280;55048;52.220;5.160;2023-01-25T13:19:44;103047.72;;;1.75;79.26
68230;BME280;55048;52.220;5.160;2023-01-25T13:22:11;103051.63;;;1.81;79.38
68230;BME280;55048;52.220;5.160;2023-01-25T13:27:32;103041.88;;;1.71;79.62
68230;BME280;55048;52.220;5.160;2023-01-25T13:35:29;103036.53;;;1.73;79.45
68230;BME280;55048;52.220;5.160;2023-01-25T13:37:59;103034.59;;;1.75;79.35
68230;BME280;55048;52.220;5.160;2023-01-25T13:40:34;103011.50;;;1.58;79.55
68230;BME280;55048;52.220;5.160;2023-01-25T13:45:37;103022.69;;;1.71;79.28
68230;BME280;55048;52.220;5.160;2023-01-25T13:48:18;103019.28;;;1.59;79.69
68230;BME280;55048;52.220;5.160;2023-01-25T13:55:53;102961.63;;;1.37;79.78
68230;BME280;55048;52.220;5.160;2023-01-25T13:58:26;103010.91;;;1.65;79.79
68230;BME280;55048;52.220;5.160;2023-01-25T14:01:04;102897.75;;;1.06;79.83
68230;BME280;55048;52.220;5.160;2023-01-25T14:03:34;102999.34;;;1.57;80.27
68230;BME280;55048;52.220;5.160;2023-01-25T14:06:01;102939.84;;;1.25;79.98
68230;BME280;55048;52.220;5.160;2023-01-25T14:08:29;102917.28;;;1.13;79.92
68230;BME280;55048;52.220;5.160;2023-01-25T14:10:56;102916.91;;;1.17;79.96
68230;BME280;55048;52.220;5.160;2023-01-25T14:13:22;102914.28;;;1.06;80.51
68230;BME280;55048;52.220;5.160;2023-01-25T14:16:08;102934.25;;;1.30;79.76
68230;BME280;55048;52.220;5.160;2023-01-25T14:18:34;102991.56;;;1.66;79.71
68230;BME280;55048;52.220;5.160;2023-01-25T14:21:15;103000.16;;;1.68;79.57
68230;BME280;55048;52.220;5.160;2023-01-25T14:23:41;102939.69;;;1.38;79.33
68230;BME280;55048;52.220;5.160;2023-01-25T14:26:17;102991.84;;;1.63;79.70
68230;BME280;55048;52.220;5.160;2023-01-25T14:28:45;102940.22;;;1.20;79.21
68230;BME280;55048;52.220;5.160;2023-01-25T14:31:19;102892.41;;;0.96;79.22
68230;BME280;55048;52.220;5.160;2023-01-25T14:33:45;102863.63;;;0.73;79.50
68230;BME280;55048;52.220;5.160;2023-01-25T14:36:13;102997.25;;;1.50;79.47
68230;BME280;55048;52.220;5.160;2023-01-25T14:38:41;102994.25;;;1.55;79.54
68230;BME280;55048;52.220;5.160;2023-01-25T14:43:38;102932.34;;;1.20;79.46
68230;BME280;55048;52.220;5.160;2023-01-25T14:46:20;102988.50;;;1.61;79.28
68230;BME280;55048;52.220;5.160;2023-01-25T14:48:46;102973.63;;;1.50;79.14
68230;BME280;55048;52.220;5.160;2023-01-25T14:51:15;102987.06;;;1.57;79.35